Time;durP1;ratioP1;P1;durP2;ratioP2;P2;SDS_P1;SDS_P2;PMS_P1;PMS_P2;Temp;Humidity;BMP_temperature;BMP_pressure;BME280_temperature;BME280_humidity;BME280_pressure;Samples;Min_cycle;Max_cycle;Signal;HPM_P1;HPM_P2
2022/10/20 00:00:37;;;;;;;64.80;24.47;;;12.50;80.10;;;;;;4993405;28;20867;-78
2022/10/20 00:03:05;;;;;;;24.43;11.50;;;12.50;80.10;;;;;;4997919;28;20489;-79
2022/10/20 00:05:33;;;;;;;15.83;9.50;;;12.40;79.90;;;;;;5014929;28;20611;-77
2022/10/20 00:08:01;;;;;;;17.70;9.90;;;12.40;79.90;;;;;;5003503;28;20488;-77
2022/10/20 00:10:30;;;;;;;19.07;10.63;;;12.30;79.80;;;;;;5016737;28;20519;-78
2022/10/20 00:12:59;;;;;;;24.27;12.90;;;12.30;79.80;;;;;;5000376;28;20516;-78
2022/10/20 00:15:27;;;;;;;28.30;14.30;;;12.30;79.70;;;;;;4998312;28;20461;-78
2022/10/20 00:17:55;;;;;;;15.93;10.30;;;12.20;79.60;;;;;;5016804;28;20463;-76
2022/10/20 00:20:23;;;;;;;17.20;10.63;;;12.10;79.50;;;;;;4998367;28;20479;-77
2022/10/20 00:22:51;;;;;;;19.43;11.10;;;12.00;79.50;;;;;;5013939;28;20473;-78
2022/10/20 00:25:19;;;;;;;14.90;10.37;;;11.90;79.50;;;;;;5010660;28;20481;-77
2022/10/20 00:27:47;;;;;;;21.63;9.50;;;11.90;79.80;;;;;;4995989;28;20450;-76
2022/10/20 00:30:16;;;;;;;15.63;9.67;;;11.80;79.80;;;;;;5000048;28;20516;-78
2022/10/20 00:32:48;;;;;;;15.40;9.00;;;11.80;80.00;;;;;;5012605;28;20481;-78
2022/10/20 00:35:16;;;;;;;15.20;8.47;;;11.90;80.10;;;;;;5018993;28;20575;-77
2022/10/20 00:37:44;;;;;;;21.23;11.17;;;11.90;80.20;;;;;;5016710;28;20642;-79
2022/10/20 00:40:12;;;;;;;25.00;14.60;;;11.90;80.00;;;;;;4995759;28;20470;-79
2022/10/20 00:42:44;;;;;;;23.60;14.13;;;11.90;79.80;;;;;;5013901;28;20497;-76
2022/10/20 00:45:14;;;;;;;36.10;17.67;;;11.90;79.80;;;;;;4998559;28;20464;-77
2022/10/20 00:47:47;;;;;;;30.70;16.60;;;11.80;79.80;;;;;;4994340;28;20520;-78
2022/10/20 00:50:18;;;;;;;21.73;12.87;;;11.80;79.80;;;;;;4997648;28;20527;-79
2022/10/20 00:52:47;;;;;;;23.77;13.50;;;11.80;79.80;;;;;;5014022;28;20470;-78
2022/10/20 00:55:19;;;;;;;18.07;12.00;;;11.70;79.70;;;;;;4998807;28;20450;-78
2022/10/20 00:57:50;;;;;;;25.83;12.83;;;11.70;79.70;;;;;;5002066;28;20511;-78
2022/10/20 01:00:19;;;;;;;29.90;16.97;;;11.70;79.60;;;;;;4994600;28;20468;-78
2022/10/20 01:02:50;;;;;;;24.10;13.83;;;11.60;79.70;;;;;;5016411;28;20484;-78
2022/10/20 01:05:18;;;;;;;20.60;12.47;;;11.60;79.70;;;;;;4996052;28;20865;-78
2022/10/20 01:07:46;;;;;;;17.67;10.67;;;11.50;79.50;;;;;;5015359;28;20601;-78
2022/10/20 01:10:14;;;;;;;20.23;10.60;;;11.50;79.50;;;;;;4990669;28;20457;-79
2022/10/20 01:12:51;;;;;;;22.80;12.10;;;11.30;79.40;;;;;;4997308;28;20479;-78
2022/10/20 01:15:27;;;;;;;15.77;10.57;;;11.20;79.40;;;;;;5020159;28;20950;-78
2022/10/20 01:18:04;;;;;;;19.60;10.27;;;11.20;79.70;;;;;;5004521;28;20854;-78
2022/10/20 01:21:03;;;;;;;15.03;10.00;;;11.10;79.80;;;;;;5019961;28;20469;-78
2022/10/20 01:23:52;;;;;;;16.77;10.77;;;11.10;79.90;;;;;;4998256;28;20540;-78
2022/10/20 01:27:05;;;;;;;16.73;10.30;;;11.00;80.10;;;;;;5005423;28;20572;-78
2022/10/20 01:29:39;;;;;;;16.83;11.30;;;11.00;80.30;;;;;;4993725;28;20466;-78
2022/10/20 01:32:16;;;;;;;15.23;9.90;;;11.10;80.40;;;;;;5003348;28;20926;-78
2022/10/20 01:34:51;;;;;;;22.07;10.50;;;11.20;80.50;;;;;;5008927;28;20457;-78
2022/10/20 01:37:28;;;;;;;18.83;10.97;;;11.20;80.30;;;;;;5006595;28;20456;-78
2022/10/20 01:40:25;;;;;;;14.57;9.43;;;11.20;80.10;;;;;;5023640;28;20563;-78
2022/10/20 01:42:56;;;;;;;18.90;9.97;;;11.20;80.10;;;;;;5008893;28;20476;-78
2022/10/20 01:45:30;;;;;;;19.00;13.03;;;11.20;80.20;;;;;;5007130;28;20561;-78
2022/10/20 01:48:00;;;;;;;15.20;11.27;;;11.20;80.30;;;;;;5011139;28;20502;-79
2022/10/20 01:50:41;;;;;;;14.87;9.77;;;11.20;80.40;;;;;;5019862;28;20471;-79
2022/10/20 01:53:09;;;;;;;18.97;10.97;;;11.30;80.30;;;;;;5000717;28;20469;-77
2022/10/20 01:55:39;;;;;;;21.40;11.20;;;11.30;80.30;;;;;;5000838;28;20474;-77
2022/10/20 01:58:21;;;;;;;24.00;11.63;;;11.30;80.20;;;;;;5001434;28;20543;-78
2022/10/20 02:01:00;;;;;;;28.43;14.50;;;11.30;80.20;;;;;;4997642;28;20457;-79
2022/10/20 02:03:37;;;;;;;27.70;14.90;;;11.40;80.30;;;;;;5013347;28;20847;-79
2022/10/20 02:06:17;;;;;;;22.20;11.10;;;11.40;80.30;;;;;;5018294;28;20460;-77
2022/10/20 02:08:47;;;;;;;17.27;11.20;;;11.50;80.10;;;;;;5005981;28;20465;-78
2022/10/20 02:11:24;;;;;;;13.83;8.73;;;11.50;80.00;;;;;;5020739;28;20460;-78
2022/10/20 02:13:54;;;;;;;15.47;10.70;;;11.50;80.00;;;;;;4997491;28;20991;-79
2022/10/20 02:16:28;;;;;;;18.70;11.27;;;11.50;80.00;;;;;;4997960;28;20465;-78
2022/10/20 02:18:57;;;;;;;20.67;11.77;;;11.50;80.00;;;;;;5018626;28;20460;-78
2022/10/20 02:21:31;;;;;;;19.67;11.53;;;11.60;79.90;;;;;;5003575;28;21113;-79
2022/10/20 02:24:03;;;;;;;26.70;14.63;;;11.60;79.90;;;;;;5002016;28;20482;-78
2022/10/20 02:26:33;;;;;;;23.67;13.27;;;11.60;79.70;;;;;;5018898;28;20496;-79
2022/10/20 02:29:09;;;;;;;26.07;13.50;;;11.60;79.80;;;;;;4996994;28;20504;-78
2022/10/20 02:31:38;;;;;;;24.03;14.03;;;11.60;79.70;;;;;;4994234;28;21266;-78
2022/10/20 02:34:07;;;;;;;31.83;16.17;;;11.60;79.60;;;;;;5000565;28;20496;-77
2022/10/20 02:36:39;;;;;;;39.13;21.00;;;11.60;79.60;;;;;;5006128;28;20515;-78
2022/10/20 02:39:07;;;;;;;32.13;17.40;;;11.60;79.50;;;;;;5017606;28;20531;-78
2022/10/20 02:41:35;;;;;;;19.30;11.80;;;11.60;79.30;;;;;;5001382;28;20653;-76
2022/10/20 02:44:04;;;;;;;16.93;10.17;;;11.50;79.10;;;;;;5014460;28;21068;-79
2022/10/20 02:46:32;;;;;;;16.33;9.87;;;11.50;79.10;;;;;;5001825;28;20449;-77
2022/10/20 02:49:01;;;;;;;16.63;11.23;;;11.40;79.20;;;;;;4998125;28;20515;-77
2022/10/20 02:51:29;;;;;;;18.40;12.07;;;11.40;79.20;;;;;;5002628;28;20456;-77
2022/10/20 02:53:57;;;;;;;21.23;12.70;;;11.40;79.10;;;;;;5020378;28;20593;-77
2022/10/20 02:56:25;;;;;;;16.17;10.20;;;11.40;79.10;;;;;;5000094;28;20453;-79
2022/10/20 02:58:57;;;;;;;16.87;11.80;;;11.40;79.00;;;;;;5002020;28;20465;-79
2022/10/20 03:01:25;;;;;;;21.00;12.40;;;11.30;79.10;;;;;;5007104;28;20453;-79
2022/10/20 03:03:57;;;;;;;17.90;10.30;;;11.30;79.10;;;;;;4995800;28;20498;-77
2022/10/20 03:06:27;;;;;;;17.10;10.87;;;11.30;79.10;;;;;;4995022;28;20453;-78
2022/10/20 03:08:55;;;;;;;18.03;10.97;;;11.30;79.20;;;;;;5005403;28;20465;-78
2022/10/20 03:11:23;;;;;;;18.77;11.80;;;11.40;79.30;;;;;;4998892;28;20468;-78
2022/10/20 03:13:51;;;;;;;17.67;11.00;;;11.40;79.30;;;;;;5001414;28;20457;-78
2022/10/20 03:16:19;;;;;;;14.00;10.13;;;11.50;79.30;;;;;;5003147;28;20464;-78
2022/10/20 03:18:47;;;;;;;16.57;10.00;;;11.50;79.10;;;;;;5017308;28;20511;-79
2022/10/20 03:21:15;;;;;;;26.63;15.47;;;11.50;79.10;;;;;;5017006;28;20462;-78
2022/10/20 03:23:44;;;;;;;18.00;11.63;;;11.50;79.10;;;;;;4997866;28;20477;-78
2022/10/20 03:26:13;;;;;;;15.27;9.93;;;11.50;78.90;;;;;;4999788;28;20468;-77
2022/10/20 03:28:41;;;;;;;18.93;11.10;;;11.50;78.80;;;;;;5007249;28;20471;-77
2022/10/20 03:31:09;;;;;;;28.63;14.47;;;11.50;78.90;;;;;;5000199;28;20519;-77
2022/10/20 03:33:37;;;;;;;27.23;15.13;;;11.50;78.90;;;;;;4999135;28;20526;-77
2022/10/20 03:36:06;;;;;;;19.80;11.97;;;11.50;78.80;;;;;;5002702;28;20441;-77
2022/10/20 03:38:34;;;;;;;23.80;13.17;;;11.50;78.50;;;;;;4997551;28;20453;-78
2022/10/20 03:41:03;;;;;;;27.87;14.23;;;11.40;78.40;;;;;;5000856;28;20491;-79
2022/10/20 03:43:31;;;;;;;25.80;15.50;;;11.40;78.60;;;;;;4994965;28;20921;-78
2022/10/20 03:46:03;;;;;;;20.40;12.60;;;11.30;78.50;;;;;;5002521;28;20635;-79
2022/10/20 03:48:31;;;;;;;22.70;14.23;;;11.30;78.60;;;;;;5000389;28;21058;-78
2022/10/20 03:51:00;;;;;;;17.53;10.77;;;11.30;78.60;;;;;;4999452;28;20465;-78
2022/10/20 03:53:28;;;;;;;18.60;10.90;;;11.30;78.40;;;;;;5002033;28;20895;-77
2022/10/20 03:55:57;;;;;;;16.40;10.47;;;11.20;78.40;;;;;;5020488;28;20473;-79
2022/10/20 03:58:26;;;;;;;17.20;10.87;;;11.20;78.50;;;;;;5001008;28;20452;-78
2022/10/20 04:00:54;;;;;;;16.13;11.07;;;11.20;78.70;;;;;;4998694;28;20546;-77
2022/10/20 04:03:22;;;;;;;19.80;12.13;;;11.20;78.70;;;;;;5001390;28;21269;-78
2022/10/20 04:05:50;;;;;;;22.03;12.10;;;11.20;78.50;;;;;;5001193;28;20527;-78
2022/10/20 04:08:18;;;;;;;14.60;10.10;;;11.20;78.40;;;;;;5001934;28;20457;-77
2022/10/20 04:10:46;;;;;;;14.50;9.90;;;11.10;78.30;;;;;;4999914;28;20453;-78
2022/10/20 04:13:14;;;;;;;13.60;10.50;;;11.10;78.30;;;;;;5002210;28;21010;-77
2022/10/20 04:15:43;;;;;;;16.30;9.60;;;11.00;78.10;;;;;;4999069;28;20515;-77
2022/10/20 04:18:11;;;;;;;14.33;10.30;;;10.80;78.00;;;;;;4999661;28;20454;-79
2022/10/20 04:20:39;;;;;;;19.07;12.10;;;10.70;78.10;;;;;;4997189;28;20541;-77
2022/10/20 04:23:11;;;;;;;14.97;10.10;;;10.60;78.40;;;;;;5011225;28;20576;-77
2022/10/20 04:25:44;;;;;;;16.80;11.80;;;10.40;78.50;;;;;;5016145;28;20542;-77
2022/10/20 04:28:12;;;;;;;21.30;13.30;;;10.30;78.60;;;;;;5000381;28;20445;-78
2022/10/20 04:30:41;;;;;;;17.97;12.83;;;10.20;78.70;;;;;;5004913;28;20526;-78
2022/10/20 04:33:10;;;;;;;16.87;11.70;;;10.20;78.80;;;;;;4996891;28;20970;-79
2022/10/20 04:35:39;;;;;;;18.73;12.13;;;10.10;79.10;;;;;;4999202;28;20827;-79
2022/10/20 04:38:07;;;;;;;14.37;10.73;;;10.20;79.50;;;;;;5000698;28;20466;-77
2022/10/20 04:40:35;;;;;;;16.23;11.10;;;10.40;79.70;;;;;;5021161;28;20460;-79
2022/10/20 04:43:03;;;;;;;18.90;11.67;;;10.40;79.60;;;;;;5015790;28;21207;-79
2022/10/20 04:45:31;;;;;;;16.00;11.67;;;10.40;79.20;;;;;;4992797;28;20481;-79
2022/10/20 04:47:59;;;;;;;16.50;11.20;;;10.40;79.10;;;;;;4989274;28;20461;-79
2022/10/20 04:50:28;;;;;;;15.93;11.40;;;10.30;79.00;;;;;;5000458;28;20446;-78
2022/10/20 04:53:07;;;;;;;17.80;12.27;;;10.20;79.20;;;;;;5000191;28;20504;-79
2022/10/20 04:55:35;;;;;;;17.90;11.73;;;10.20;79.40;;;;;;5001246;28;20805;-79
2022/10/20 04:58:03;;;;;;;27.70;12.43;;;10.10;79.50;;;;;;5021741;28;20486;-79
2022/10/20 05:00:31;;;;;;;19.00;12.40;;;10.10;79.60;;;;;;5001706;28;20462;-78
2022/10/20 05:02:59;;;;;;;17.23;12.90;;;10.00;79.70;;;;;;4999389;28;20514;-78
2022/10/20 05:05:28;;;;;;;20.07;12.57;;;10.00;79.80;;;;;;5006554;28;20519;-78
2022/10/20 05:07:56;;;;;;;18.63;12.87;;;10.00;80.00;;;;;;5000736;28;20523;-78
2022/10/20 05:10:24;;;;;;;21.47;12.40;;;10.00;80.20;;;;;;4996051;28;20511;-78
2022/10/20 05:12:52;;;;;;;18.67;12.30;;;10.00;80.10;;;;;;5017676;28;20485;-78
2022/10/20 05:15:20;;;;;;;18.47;11.50;;;10.00;80.30;;;;;;5001033;28;20456;-78
2022/10/20 05:17:48;;;;;;;17.43;12.50;;;10.10;80.50;;;;;;5022746;28;20457;-77
2022/10/20 05:20:16;;;;;;;17.23;12.80;;;10.20;80.40;;;;;;5002065;28;20465;-77
2022/10/20 05:22:45;;;;;;;16.80;12.80;;;10.20;80.40;;;;;;5000517;28;20486;-79
2022/10/20 05:25:13;;;;;;;18.53;13.00;;;10.30;80.40;;;;;;5007820;28;20476;-80
2022/10/20 05:28:01;;;;;;;18.47;12.67;;;10.30;80.40;;;;;;4995145;28;20536;-77
2022/10/20 05:30:29;;;;;;;16.20;12.40;;;10.30;80.30;;;;;;5001460;28;20959;-79
2022/10/20 05:32:57;;;;;;;21.00;13.53;;;10.30;80.60;;;;;;5016730;28;21005;-77
2022/10/20 05:35:25;;;;;;;18.10;12.67;;;10.40;80.70;;;;;;5023015;28;20480;-79
2022/10/20 05:37:55;;;;;;;17.57;11.50;;;10.50;80.70;;;;;;5001205;28;20454;-79
2022/10/20 05:40:23;;;;;;;18.00;12.43;;;10.60;80.50;;;;;;5020124;28;20458;-78
2022/10/20 05:42:51;;;;;;;24.53;12.00;;;10.60;80.30;;;;;;4997089;28;20932;-78
2022/10/20 05:45:19;;;;;;;16.43;12.80;;;10.60;80.30;;;;;;5006099;28;20488;-78
2022/10/20 05:47:47;;;;;;;20.57;12.60;;;10.50;80.40;;;;;;5005281;28;20454;-78
2022/10/20 05:50:15;;;;;;;28.97;13.00;;;10.50;80.40;;;;;;5007038;28;20487;-79
2022/10/20 05:52:43;;;;;;;21.73;13.20;;;10.50;80.30;;;;;;5004308;28;21049;-77
2022/10/20 05:55:12;;;;;;;18.87;13.47;;;10.40;80.50;;;;;;5020461;28;20469;-79
2022/10/20 05:57:40;;;;;;;20.70;14.07;;;10.40;80.50;;;;;;4997685;28;20457;-79
2022/10/20 06:00:10;;;;;;;18.77;13.83;;;10.40;80.60;;;;;;4991311;28;20944;-79
2022/10/20 06:02:40;;;;;;;22.53;12.73;;;10.40;80.70;;;;;;5016834;28;20485;-78
2022/10/20 06:05:08;;;;;;;22.67;13.83;;;10.40;80.90;;;;;;5000671;28;20457;-77
2022/10/20 06:07:36;;;;;;;21.00;12.60;;;10.40;81.00;;;;;;5017179;28;21260;-78
2022/10/20 06:10:05;;;;;;;18.73;13.30;;;10.50;81.00;;;;;;4999454;28;20892;-79
2022/10/20 06:12:35;;;;;;;22.93;14.40;;;10.50;80.90;;;;;;5003866;28;20540;-79
2022/10/20 06:15:04;;;;;;;22.23;13.00;;;10.50;80.80;;;;;;5012255;28;20541;-77
2022/10/20 06:17:32;;;;;;;21.53;14.50;;;10.50;80.80;;;;;;5000546;28;20444;-78
2022/10/20 06:20:00;;;;;;;24.67;15.20;;;10.50;80.90;;;;;;5015028;28;20555;-78
2022/10/20 06:22:28;;;;;;;21.37;14.37;;;10.50;80.90;;;;;;4998318;28;20596;-77
2022/10/20 06:24:56;;;;;;;26.53;14.63;;;10.50;81.10;;;;;;5006384;28;20475;-78
2022/10/20 06:27:24;;;;;;;26.87;14.97;;;10.50;81.10;;;;;;5004276;28;20481;-80
2022/10/20 06:29:54;;;;;;;20.30;15.57;;;10.50;81.20;;;;;;4999601;28;20448;-78
2022/10/20 06:32:22;;;;;;;23.70;16.33;;;10.50;81.20;;;;;;4999038;28;20484;-79
2022/10/20 06:34:50;;;;;;;26.23;17.13;;;10.50;81.10;;;;;;5000745;28;20462;-77
2022/10/20 06:37:18;;;;;;;19.60;14.77;;;10.50;81.30;;;;;;5000600;28;20469;-76
2022/10/20 06:39:46;;;;;;;23.33;16.77;;;10.50;81.30;;;;;;5012052;28;20900;-79
2022/10/20 06:42:14;;;;;;;29.30;16.60;;;10.60;81.50;;;;;;4999353;28;21044;-79
2022/10/20 06:44:45;;;;;;;24.60;16.33;;;10.50;81.50;;;;;;5002706;28;20602;-77
2022/10/20 06:47:14;;;;;;;24.20;17.00;;;10.60;81.60;;;;;;5020407;28;20473;-77
2022/10/20 06:49:42;;;;;;;23.20;17.20;;;10.60;81.60;;;;;;4999694;28;20974;-77
2022/10/20 06:52:10;;;;;;;27.30;16.67;;;10.60;81.70;;;;;;5001150;28;20480;-79
2022/10/20 06:54:39;;;;;;;24.83;16.87;;;10.70;81.80;;;;;;5016539;28;20909;-77
2022/10/20 06:57:06;;;;;;;25.43;16.70;;;10.70;81.80;;;;;;5010942;28;20511;-79
2022/10/20 06:59:34;;;;;;;28.47;18.87;;;10.70;81.90;;;;;;5000667;28;20457;-79
2022/10/20 07:02:02;;;;;;;29.97;18.80;;;10.70;81.90;;;;;;5014021;28;21113;-78
2022/10/20 07:04:32;;;;;;;25.60;17.60;;;10.80;82.00;;;;;;5018003;28;21170;-79
2022/10/20 07:07:00;;;;;;;27.70;17.00;;;10.80;82.10;;;;;;5000180;28;20485;-78
2022/10/20 07:09:28;;;;;;;24.60;16.30;;;10.80;82.10;;;;;;5014212;28;20452;-78
2022/10/20 07:11:56;;;;;;;23.43;16.07;;;10.80;82.20;;;;;;5014504;28;20488;-78
2022/10/20 07:14:24;;;;;;;26.90;17.90;;;10.80;82.20;;;;;;5005004;28;20464;-78
2022/10/20 07:16:51;;;;;;;29.07;19.10;;;10.90;82.40;;;;;;4998181;28;20454;-80
2022/10/20 07:19:19;;;;;;;23.87;18.07;;;10.90;82.40;;;;;;5000161;28;21347;-80
2022/10/20 07:21:49;;;;;;;30.63;17.30;;;10.90;82.40;;;;;;5003534;28;20911;-77
2022/10/20 07:24:17;;;;;;;31.80;17.00;;;10.90;82.50;;;;;;5001974;28;20450;-78
2022/10/20 07:26:45;;;;;;;29.60;19.77;;;11.00;82.60;;;;;;4998612;28;20876;-77
2022/10/20 07:29:14;;;;;;;26.43;18.47;;;11.00;82.80;;;;;;4999742;28;20510;-77
2022/10/20 07:31:44;;;;;;;24.77;17.60;;;11.10;82.50;;;;;;4999425;28;20453;-77
2022/10/20 07:34:14;;;;;;;31.77;18.30;;;11.10;82.60;;;;;;4999891;28;20440;-79
2022/10/20 07:36:59;;;;;;;29.87;19.63;;;11.10;82.50;;;;;;5000693;28;20485;-78
2022/10/20 07:39:27;;;;;;;31.60;18.20;;;11.10;82.80;;;;;;5016115;28;20832;-79
2022/10/20 07:41:55;;;;;;;34.73;19.67;;;11.10;82.60;;;;;;4998796;28;20480;-79
2022/10/20 07:44:23;;;;;;;30.03;19.40;;;11.20;82.60;;;;;;5000958;28;21297;-78
2022/10/20 07:46:51;;;;;;;30.57;19.70;;;11.20;82.70;;;;;;5001432;28;20485;-78
2022/10/20 07:49:19;;;;;;;28.33;19.60;;;11.20;82.80;;;;;;5017365;28;20480;-79
2022/10/20 07:52:08;;;;;;;27.77;19.80;;;11.20;82.80;;;;;;5003790;28;20542;-78
2022/10/20 07:54:36;;;;;;;34.30;20.83;;;11.20;83.00;;;;;;5002660;28;20461;-78
2022/10/20 07:57:04;;;;;;;28.53;19.53;;;11.20;83.00;;;;;;5009811;28;20951;-78
2022/10/20 07:59:32;;;;;;;32.73;20.77;;;11.20;83.10;;;;;;5017560;28;20480;-78
2022/10/20 08:02:00;;;;;;;30.80;20.70;;;11.20;83.10;;;;;;5011610;28;20496;-79
2022/10/20 08:04:30;;;;;;;44.53;23.10;;;11.20;83.20;;;;;;5026880;28;20476;-77
2022/10/20 08:06:58;;;;;;;40.00;21.03;;;11.30;83.30;;;;;;5009969;28;20835;-79
2022/10/20 08:09:28;;;;;;;37.93;21.57;;;11.30;83.30;;;;;;5020838;28;20454;-79
2022/10/20 08:11:56;;;;;;;34.17;22.13;;;11.30;83.40;;;;;;5007959;28;20836;-79
2022/10/20 08:14:26;;;;;;;31.77;21.33;;;11.30;83.50;;;;;;5004085;28;20453;-77
2022/10/20 08:16:55;;;;;;;32.93;20.20;;;11.40;83.50;;;;;;4997604;28;20456;-79
2022/10/20 08:19:27;;;;;;;37.70;24.50;;;11.40;83.40;;;;;;4994456;28;20457;-78
2022/10/20 08:22:00;;;;;;;36.80;24.23;;;11.40;83.50;;;;;;4996650;28;20469;-79
2022/10/20 08:24:30;;;;;;;36.30;21.87;;;11.40;83.60;;;;;;5002511;28;20507;-79
2022/10/20 08:26:59;;;;;;;28.83;19.50;;;11.50;83.60;;;;;;5011044;28;20591;-79
2022/10/20 08:29:27;;;;;;;29.97;20.50;;;11.50;83.60;;;;;;5022233;28;20453;-80
2022/10/20 08:31:54;;;;;;;28.03;19.00;;;11.50;83.60;;;;;;5003006;28;20990;-79
2022/10/20 08:34:22;;;;;;;37.93;21.67;;;11.50;83.70;;;;;;5000023;28;20491;-78
2022/10/20 08:36:50;;;;;;;27.67;19.47;;;11.50;83.70;;;;;;5007452;28;20449;-79
2022/10/20 08:39:19;;;;;;;32.87;21.73;;;11.60;83.70;;;;;;5019245;28;20528;-78
2022/10/20 08:41:50;;;;;;;31.10;19.80;;;11.60;83.80;;;;;;5005687;28;20951;-78
2022/10/20 08:44:38;;;;;;;29.43;20.07;;;11.60;83.80;;;;;;5003168;28;20452;-77
2022/10/20 08:47:15;;;;;;;34.77;22.27;;;11.60;83.80;;;;;;5003560;28;20484;-78
2022/10/20 08:49:45;;;;;;;29.63;19.57;;;11.60;83.90;;;;;;5007750;28;20456;-77
2022/10/20 08:52:14;;;;;;;33.23;19.13;;;11.60;83.80;;;;;;5000038;28;21096;-78
2022/10/20 08:54:42;;;;;;;35.80;22.13;;;11.60;83.80;;;;;;4998066;28;21238;-78
2022/10/20 08:57:22;;;;;;;33.50;22.37;;;11.60;83.80;;;;;;5002071;28;20453;-79
2022/10/20 08:59:52;;;;;;;28.07;20.20;;;11.70;83.80;;;;;;5005857;28;20465;-78
2022/10/20 09:02:21;;;;;;;31.23;19.67;;;11.60;83.90;;;;;;5003833;28;21132;-78
2022/10/20 09:04:53;;;;;;;27.90;19.53;;;11.60;84.10;;;;;;5001426;28;20511;-78
2022/10/20 09:07:28;;;;;;;30.20;20.07;;;11.70;84.00;;;;;;5014748;28;20473;-78
2022/10/20 09:10:07;;;;;;;35.10;22.70;;;11.70;84.00;;;;;;5004843;28;20448;-77
2022/10/20 09:12:39;;;;;;;33.73;20.47;;;11.70;83.90;;;;;;5004658;28;20485;-78
2022/10/20 09:15:10;;;;;;;37.20;21.87;;;11.80;83.90;;;;;;5001043;28;20477;-78
2022/10/20 09:17:41;;;;;;;27.63;19.63;;;11.80;84.00;;;;;;5001010;28;20450;-77
2022/10/20 09:20:19;;;;;;;32.17;21.90;;;11.80;83.90;;;;;;5007540;28;20460;-78
2022/10/20 09:22:47;;;;;;;38.30;22.90;;;11.90;83.90;;;;;;5005943;28;20834;-79
2022/10/20 09:25:18;;;;;;;29.83;21.37;;;11.90;84.00;;;;;;4995639;28;20506;-78
2022/10/20 09:27:48;;;;;;;28.93;20.57;;;11.90;84.00;;;;;;5005190;28;20474;-77
2022/10/20 09:30:18;;;;;;;29.43;22.00;;;12.00;84.10;;;;;;5005599;28;20464;-78
2022/10/20 09:32:47;;;;;;;35.93;21.97;;;12.00;84.10;;;;;;5001844;28;20530;-78
2022/10/20 09:35:27;;;;;;;28.53;20.70;;;12.00;84.10;;;;;;5000844;28;20524;-79
2022/10/20 09:38:01;;;;;;;29.10;20.60;;;12.00;84.10;;;;;;5002938;28;20507;-77
2022/10/20 09:40:29;;;;;;;27.77;20.20;;;12.10;84.20;;;;;;5001314;28;20468;-79
2022/10/20 09:43:02;;;;;;;32.57;20.40;;;12.10;84.20;;;;;;5000490;28;20473;-79
2022/10/20 09:45:33;;;;;;;35.87;22.00;;;12.20;84.10;;;;;;5003271;28;20563;-78
2022/10/20 09:48:06;;;;;;;29.60;20.40;;;12.20;84.10;;;;;;5020792;28;20527;-79
2022/10/20 09:50:38;;;;;;;29.50;20.10;;;12.20;84.10;;;;;;4999044;28;20511;-79
2022/10/20 09:53:18;;;;;;;32.73;19.80;;;12.30;84.10;;;;;;5000591;28;20547;-78
2022/10/20 09:55:48;;;;;;;33.47;21.40;;;12.30;84.10;;;;;;5016520;28;20985;-78
2022/10/20 09:58:26;;;;;;;34.20;21.77;;;12.30;84.20;;;;;;4998572;28;20590;-78
2022/10/20 10:01:00;;;;;;;30.27;20.13;;;12.40;84.10;;;;;;4999130;28;20450;-78
2022/10/20 10:03:28;;;;;;;36.50;20.70;;;12.40;84.00;;;;;;5013824;28;20481;-78
2022/10/20 10:05:58;;;;;;;29.00;20.27;;;12.50;84.00;;;;;;5004521;28;20539;-78
2022/10/20 10:08:29;;;;;;;31.73;20.90;;;12.50;84.00;;;;;;5000300;28;20480;-79
2022/10/20 10:11:00;;;;;;;26.37;19.20;;;12.50;84.00;;;;;;5002406;28;20464;-78
2022/10/20 10:13:35;;;;;;;30.63;18.57;;;12.60;84.10;;;;;;5019406;28;20612;-79
2022/10/20 10:16:07;;;;;;;30.10;19.10;;;12.60;84.10;;;;;;4999577;28;20535;-77
2022/10/20 10:18:37;;;;;;;28.30;20.33;;;12.70;84.20;;;;;;5022112;28;20495;-79
2022/10/20 10:21:06;;;;;;;30.33;19.60;;;12.70;84.10;;;;;;5015258;28;20464;-78
2022/10/20 10:23:39;;;;;;;27.57;19.87;;;12.80;84.00;;;;;;5001551;28;20485;-79
2022/10/20 10:26:43;;;;;;;30.57;18.33;;;12.80;84.00;;;;;;5000531;28;20458;-79
2022/10/20 10:29:23;;;;;;;26.10;17.80;;;12.90;83.90;;;;;;4998952;28;20547;-76
2022/10/20 10:31:56;;;;;;;28.53;20.10;;;12.90;83.90;;;;;;5009042;28;20486;-77
2022/10/20 10:34:37;;;;;;;28.47;19.23;;;12.90;83.90;;;;;;5001268;28;20453;-77
2022/10/20 10:37:06;;;;;;;32.57;21.70;;;13.00;83.90;;;;;;4999935;28;20460;-79
2022/10/20 10:39:36;;;;;;;28.13;19.70;;;13.00;83.90;;;;;;4996202;28;20496;-78
2022/10/20 10:42:19;;;;;;;29.90;18.57;;;13.00;83.90;;;;;;4995702;28;20483;-78
2022/10/20 10:44:57;;;;;;;24.80;18.13;;;13.00;83.90;;;;;;5016664;28;20461;-78
2022/10/20 10:47:46;;;;;;;36.03;20.23;;;13.10;83.90;;;;;;5001930;28;20465;-78
2022/10/20 10:50:27;;;;;;;29.20;18.93;;;13.20;84.10;;;;;;5003501;28;20468;-78
2022/10/20 10:53:07;;;;;;;29.33;19.43;;;13.20;84.10;;;;;;5007743;28;20486;-79
2022/10/20 10:55:42;;;;;;;29.77;20.67;;;13.30;84.10;;;;;;5007047;28;20512;-79
2022/10/20 10:58:29;;;;;;;31.67;20.73;;;13.40;84.00;;;;;;5013559;28;20460;-78
2022/10/20 11:01:08;;;;;;;30.40;19.67;;;13.50;83.80;;;;;;4996134;28;20464;-78
2022/10/20 11:04:17;;;;;;;29.33;21.30;;;13.60;83.70;;;;;;4997804;28;20573;-78
2022/10/20 11:06:50;;;;;;;28.33;19.60;;;13.60;83.70;;;;;;5011928;28;20516;-78
2022/10/20 11:09:31;;;;;;;29.03;20.30;;;13.70;83.70;;;;;;5000584;28;20560;-79
2022/10/20 11:12:26;;;;;;;32.60;20.20;;;13.70;83.70;;;;;;4999433;28;20541;-78
2022/10/20 11:15:06;;;;;;;28.13;21.00;;;13.80;83.60;;;;;;5015037;28;20459;-78
2022/10/20 11:17:48;;;;;;;30.17;20.60;;;13.80;83.60;;;;;;5001952;28;20462;-78
2022/10/20 11:20:27;;;;;;;24.63;18.53;;;13.80;83.50;;;;;;4999117;28;20461;-78
2022/10/20 11:23:13;;;;;;;30.80;22.40;;;13.90;83.50;;;;;;4999139;28;20477;-79
2022/10/20 11:25:49;;;;;;;29.83;20.70;;;13.90;83.40;;;;;;5018509;28;20461;-77
2022/10/20 11:28:29;;;;;;;30.97;21.30;;;13.90;83.30;;;;;;5014689;28;20476;-78
2022/10/20 11:30:59;;;;;;;27.83;19.80;;;13.90;83.20;;;;;;5000214;28;20453;-78
2022/10/20 11:33:42;;;;;;;30.03;20.43;;;13.90;83.30;;;;;;5001144;28;20473;-78
2022/10/20 11:36:14;;;;;;;28.10;20.03;;;13.90;83.50;;;;;;5015509;28;20800;-78
2022/10/20 11:38:49;;;;;;;30.23;21.17;;;13.90;83.60;;;;;;5001605;28;20504;-78
2022/10/20 11:41:20;;;;;;;33.83;21.83;;;14.00;83.40;;;;;;5016369;28;20524;-79
2022/10/20 11:43:56;;;;;;;33.13;21.70;;;14.00;83.30;;;;;;5001494;28;20495;-79
2022/10/20 11:46:34;;;;;;;35.43;23.90;;;14.00;83.20;;;;;;5010832;28;20577;-79
2022/10/20 11:49:04;;;;;;;27.83;19.43;;;14.10;83.20;;;;;;5001952;28;20512;-78
2022/10/20 11:52:08;;;;;;;29.17;19.67;;;14.10;83.20;;;;;;4997998;28;20473;-78
2022/10/20 11:54:56;;;;;;;33.43;21.13;;;14.10;83.30;;;;;;5011723;28;20461;-79
2022/10/20 11:57:34;;;;;;;27.50;19.73;;;14.20;83.30;;;;;;4996647;28;20454;-79
2022/10/20 12:00:22;;;;;;;29.57;19.20;;;14.20;83.30;;;;;;5004562;28;20474;-78
2022/10/20 12:03:25;;;;;;;32.10;21.60;;;14.20;83.20;;;;;;5012024;28;20528;-78
2022/10/20 12:06:22;;;;;;;34.83;20.00;;;14.20;83.30;;;;;;5003962;28;20973;-78
2022/10/20 12:09:06;;;;;;;34.43;20.00;;;14.20;83.30;;;;;;4996417;28;20474;-78
2022/10/20 12:11:41;;;;;;;28.07;20.60;;;14.30;83.20;;;;;;4994292;28;20465;-78
2022/10/20 12:14:24;;;;;;;29.77;21.20;;;14.30;83.30;;;;;;5012881;28;20506;-79
2022/10/20 12:17:19;;;;;;;30.47;19.90;;;14.30;83.30;;;;;;5015850;28;20457;-77
2022/10/20 12:19:50;;;;;;;29.33;19.47;;;14.30;83.40;;;;;;4994997;28;20468;-77
2022/10/20 12:22:39;;;;;;;29.27;18.73;;;14.40;83.40;;;;;;5012874;28;20489;-78
2022/10/20 12:25:38;;;;;;;25.30;16.60;;;14.40;83.30;;;;;;5013556;28;20468;-77
2022/10/20 12:28:44;;;;;;;29.27;18.80;;;14.50;83.30;;;;;;4996919;28;20465;-77
2022/10/20 12:31:12;;;;;;;21.60;16.63;;;14.50;83.30;;;;;;5013464;28;20456;-78
2022/10/20 12:33:59;;;;;;;24.00;16.37;;;14.60;83.40;;;;;;4994489;28;20504;-78
2022/10/20 12:36:33;;;;;;;22.17;15.53;;;14.60;83.40;;;;;;5011972;28;20461;-79
2022/10/20 12:39:23;;;;;;;23.80;17.53;;;14.70;83.20;;;;;;5000789;28;20473;-77
2022/10/20 12:41:58;;;;;;;23.67;16.30;;;14.80;83.00;;;;;;4998185;28;21089;-77
2022/10/20 12:44:29;;;;;;;29.37;18.33;;;14.80;82.90;;;;;;4994044;28;20837;-79
2022/10/20 12:47:03;;;;;;;31.60;20.30;;;14.80;82.90;;;;;;5000252;28;20465;-80
2022/10/20 12:49:33;;;;;;;32.67;21.47;;;14.80;82.90;;;;;;4996948;28;20519;-79
2022/10/20 12:52:04;;;;;;;27.03;19.57;;;14.90;82.80;;;;;;4996928;28;20477;-78
2022/10/20 12:54:38;;;;;;;28.90;18.30;;;14.90;82.80;;;;;;4997242;28;20449;-80